地図

経路データ

SID SEASON NUMBER BASIN SUBBASIN NAME ISO_TIME NATURE LAT LON WMO_WIND WMO_PRES WMO_AGENCY TRACK_TYPE DIST2LAND LANDFALL IFLAG USA_AGENCY USA_ATCF_ID USA_LAT USA_LON USA_RECORD USA_STATUS USA_WIND USA_PRES USA_SSHS USA_R34_NE USA_R34_SE USA_R34_SW USA_R34_NW USA_R50_NE USA_R50_SE USA_R50_SW USA_R50_NW USA_R64_NE USA_R64_SE USA_R64_SW USA_R64_NW USA_POCI USA_ROCI USA_RMW USA_EYE TOKYO_LAT TOKYO_LON TOKYO_GRADE TOKYO_WIND TOKYO_PRES TOKYO_R50_DIR TOKYO_R50_LONG TOKYO_R50_SHORT TOKYO_R30_DIR TOKYO_R30_LONG TOKYO_R30_SHORT TOKYO_LAND CMA_LAT CMA_LON CMA_CAT CMA_WIND CMA_PRES HKO_LAT HKO_LON HKO_CAT HKO_WIND HKO_PRES NEWDELHI_LAT NEWDELHI_LON NEWDELHI_GRADE NEWDELHI_WIND NEWDELHI_PRES NEWDELHI_CI NEWDELHI_DP NEWDELHI_POCI REUNION_LAT REUNION_LON REUNION_TYPE REUNION_WIND REUNION_PRES REUNION_TNUM REUNION_CI REUNION_RMW REUNION_R34_NE REUNION_R34_SE REUNION_R34_SW REUNION_R34_NW REUNION_R50_NE REUNION_R50_SE REUNION_R50_SW REUNION_R50_NW REUNION_R64_NE REUNION_R64_SE REUNION_R64_SW REUNION_R64_NW BOM_LAT BOM_LON BOM_TYPE BOM_WIND BOM_PRES BOM_TNUM BOM_CI BOM_RMW BOM_R34_NE BOM_R34_SE BOM_R34_SW BOM_R34_NW BOM_R50_NE BOM_R50_SE BOM_R50_SW BOM_R50_NW BOM_R64_NE BOM_R64_SE BOM_R64_SW BOM_R64_NW BOM_ROCI BOM_POCI BOM_EYE BOM_POS_METHOD BOM_PRES_METHOD NADI_LAT NADI_LON NADI_CAT NADI_WIND NADI_PRES WELLINGTON_LAT WELLINGTON_LON WELLINGTON_WIND WELLINGTON_PRES DS824_LAT DS824_LON DS824_STAGE DS824_WIND DS824_PRES TD9636_LAT TD9636_LON TD9636_STAGE TD9636_WIND TD9636_PRES TD9635_LAT TD9635_LON TD9635_WIND TD9635_PRES TD9635_ROCI NEUMANN_LAT NEUMANN_LON NEUMANN_CLASS NEUMANN_WIND NEUMANN_PRES MLC_LAT MLC_LON MLC_CLASS MLC_WIND MLC_PRES USA_GUST BOM_GUST BOM_GUST_PER REUNION_GUST REUNION_GUST_PER USA_SEAHGT USA_SEARAD_NE USA_SEARAD_SE USA_SEARAD_SW USA_SEARAD_NW STORM_SPEED STORM_DIR
1949343S15156 1950 104 SP EA NOT_NAMED 1949-12-09 00:00:00 TS -15.0000 156.200 bom main 701 695 O_____O__OO___ jtwc_sh SH011950 -15.0000 156.200 -1 -15.0000 156.200 -15.0000 156.200 TC -15.0000 156.200 4 9 126
1949343S15156 1950 104 SP EA NOT_NAMED 1949-12-09 03:00:00 TS -15.2515 156.563 main 707 701 P_____P__PP___ SH011950 -15.2376 156.552 -1 -15.2376 156.552 -15.2376 156.552 TC -15.2932 156.593 4 9 127
1949343S15156 1950 104 SP EA NOT_NAMED 1949-12-09 06:00:00 TS -15.5197 156.915 bom main 711 711 O_____O__OP___ jtwc_sh SH011950 -15.5000 156.900 -1 -15.5000 156.900 -15.5000 156.900 TC -15.5789 156.960 4 9 131
1949343S15156 1950 104 SP EA NOT_NAMED 1949-12-09 09:00:00 TS -15.8125 157.240 main 728 724 P_____P__PP___ SH011950 -15.8000 157.230 -1 -15.8000 157.230 -15.8000 157.230 TC -15.8500 157.272 4 8 136
1949343S15156 1950 104 SP EA NOT_NAMED 1949-12-09 12:00:00 TS -16.1000 157.500 bom main 748 748 O_____O__OO___ jtwc_sh SH011950 -16.1000 157.500 -1 -16.1000 157.500 -16.1000 157.500 TC -16.1000 157.500 4 7 143
1949343S15156 1950 104 SP EA NOT_NAMED 1949-12-09 15:00:00 TS -16.3447 157.658 main 758 758 P_____P__PP___ SH011950 -16.3499 157.665 -1 -16.3499 157.665 -16.3499 157.665 TC -16.3292 157.635 4 6 151
1949343S15156 1950 104 SP EA NOT_NAMED 1949-12-09 18:00:00 TS -16.5914 157.785 bom main 773 752 O_____O__OP___ jtwc_sh SH011950 -16.6000 157.800 -1 -16.6000 157.800 -16.6000 157.800 TC -16.5656 157.741 4 6 154
1949343S15156 1950 104 SP EA NOT_NAMED 1949-12-09 21:00:00 TS -16.8577 157.920 main 746 702 P_____P__PP___ SH011950 -16.8622 157.926 -1 -16.8622 157.926 -16.8622 157.926 TC -16.8443 157.902 4 7 147
1949343S15156 1950 104 SP EA NOT_NAMED 1949-12-10 00:00:00 TS -17.2000 158.200 bom main 702 633 O_____O__OO___ jtwc_sh SH011950 -17.2000 158.200 -1 -17.2000 158.200 -17.2000 158.200 TC -17.2000 158.200 4 11 135
1949343S15156 1950 104 SP EA NOT_NAMED 1949-12-10 03:00:00 TS -17.6694 158.758 main 619 536 P_____P__PP___ SH011950 -17.6551 158.768 -1 -17.6551 158.768 -17.6551 158.768 TC -17.7122 158.731 4 16 130
1949343S15156 1950 104 SP EA NOT_NAMED 1949-12-10 06:00:00 TS -18.2233 159.477 bom main 527 432 O_____O__OP___ jtwc_sh SH011950 -18.2000 159.500 -1 -18.2000 159.500 -18.2000 159.500 TC -18.2934 159.409 4 18 130
1949343S15156 1950 104 SP MM NOT_NAMED 1949-12-10 09:00:00 TS -18.8362 160.222 main 432 329 P_____P__PP___ SH011950 -18.8224 160.235 -1 -18.8224 160.235 -18.8224 160.235 TC -18.8776 160.184 4 19 129
1949343S15156 1950 104 SP MM NOT_NAMED 1949-12-10 12:00:00 TS -19.4000 161.000 bom main 329 246 O_____O__OO___ jtwc_sh SH011950 -19.4000 161.000 -1 -19.4000 161.000 -19.4000 161.000 TC -19.4000 161.000 4 17 124
1949343S15156 1950 104 SP MM NOT_NAMED 1949-12-10 15:00:00 TS -19.8008 161.729 main 246 168 P_____P__PP___ SH011950 -19.8020 161.736 -1 -19.8020 161.736 -19.8020 161.736 TC -19.7974 161.708 4 16 117
1949343S15156 1950 104 SP MM NOT_NAMED 1949-12-10 18:00:00 TS -20.1057 162.488 bom main 158 84 O_____O__OP___ jtwc_sh SH011950 -20.1000 162.500 -1 -20.1000 162.500 -20.1000 162.500 TC -20.1229 162.452 4 16 112
1949343S15156 1950 104 SP MM NOT_NAMED 1949-12-10 21:00:00 TS -20.3811 163.285 main 73 15 P_____P__PP___ SH011950 -20.3791 163.290 -1 -20.3791 163.290 -20.3791 163.290 TC -20.3871 163.270 4 17 107
1949343S15156 1950 104 SP MM NOT_NAMED 1949-12-11 00:00:00 TS -20.6000 164.200 bom main 10 0 O_____O__OO___ jtwc_sh SH011950 -20.6000 164.200 -1 -20.6000 164.200 -20.6000 164.200 TC -20.6000 164.200 4 19 102
1949343S15156 1950 104 SP MM NOT_NAMED 1949-12-11 03:00:00 TS -20.7645 165.298 main 10 10 P_____P__PP___ SH011950 -20.7722 165.290 -1 -20.7722 165.290 -20.7722 165.290 TC -20.7412 165.321 4 22 98
1949343S15156 1950 104 SP MM NOT_NAMED 1949-12-11 06:00:00 TS -20.8846 166.511 bom main 78 78 O_____O__OP___ jtwc_sh SH011950 -20.9000 166.500 -1 -20.9000 166.500 -20.9000 166.500 TC -20.8385 166.545 4 23 95
1949343S15156 1950 104 SP MM NOT_NAMED 1949-12-11 09:00:00 TS -20.9798 167.779 main 154 154 P_____P__PP___ SH011950 -20.9927 167.773 -1 -20.9927 167.773 -20.9927 167.773 TC -20.9410 167.796 4 23 95
1949343S15156 1950 104 SP MM NOT_NAMED 1949-12-11 12:00:00 TS -21.1000 169.000 bom main 240 240 O_____O__OO___ jtwc_sh SH011950 -21.1000 169.000 -1 -21.1000 169.000 -21.1000 169.000 TC -21.1000 169.000 4 21 97
1949343S15156 1950 104 SP MM NOT_NAMED 1949-12-11 15:00:00 TS -21.2534 170.048 main 325 325 P_____P__PP___ SH011950 -21.2387 170.038 -1 -21.2387 170.038 -21.2387 170.038 TC -21.2973 170.077 4 19 102
1949343S15156 1950 104 SP MM NOT_NAMED 1949-12-11 18:00:00 TS -21.5179 171.024 bom main 420 420 O_____O__OP___ jtwc_sh SH011950 -21.5000 171.000 -1 -21.5000 171.000 -21.5000 171.000 TC -21.5718 171.096 4 20 110
1949343S15156 1950 104 SP MM NOT_NAMED 1949-12-11 21:00:00 TS -21.9167 172.023 main 516 516 P_____P__PP___ SH011950 -21.9021 172.008 -1 -21.9021 172.008 -21.9021 172.008 TC -21.9604 172.066 4 21 118
1949343S15156 1950 104 SP MM NOT_NAMED 1949-12-12 00:00:00 TS -22.5000 173.000 bom main 616 616 O_____O__OO___ jtwc_sh SH011950 -22.5000 173.000 -1 -22.5000 173.000 -22.5000 173.000 TC -22.5000 173.000 4 23 127
1949343S15156 1950 104 SP MM NOT_NAMED 1949-12-12 03:00:00 TS -23.2761 173.973 main 675 675 P_____P__PP___ SH011950 -23.2896 173.973 -1 -23.2896 173.973 -23.2896 173.973 TC -23.2357 173.973 4 24 134
1949343S15156 1950 104 SP MM NOT_NAMED 1949-12-12 06:00:00 TS -24.1787 174.904 bom main 726 722 O_____O__OP___ jtwc_sh SH011950 -24.2000 174.900 -1 -24.2000 174.900 -24.2000 174.900 TC -24.1149 174.915 4 25 138
1949343S15156 1950 104 SP MM NOT_NAMED 1949-12-12 09:00:00 TS -25.0957 175.791 main 790 790 P_____P__PP___ SH011950 -25.1071 175.788 -1 -25.1071 175.788 -25.1071 175.788 TC -25.0615 175.799 4 24 140
1949343S15156 1950 104 SP MM NOT_NAMED 1949-12-12 12:00:00 TS -26.0000 176.600 bom main 871 871 O_____O__OO___ jtwc_sh SH011950 -26.0000 176.600 -1 -26.0000 176.600 -26.0000 176.600 TC -26.0000 176.600 4 22 141
1949343S15156 1950 104 SP MM NOT_NAMED 1949-12-12 15:00:00 TS -26.8289 177.339 main 951 899 P_____P__PP___ SH011950 -26.8146 177.354 -1 -26.8146 177.354 -26.8146 177.354 TC -26.8717 177.297 4 20 143
1949343S15156 1950 104 SP MM NOT_NAMED 1949-12-12 18:00:00 TS -27.6205 177.977 bom main 904 856 O_____O__OP___ jtwc_sh SH011950 -27.6000 178.000 -1 -27.6000 178.000 -27.6000 178.000 TC -27.6821 177.910 4 19 147
1949343S15156 1950 104 SP MM NOT_NAMED 1949-12-12 21:00:00 TS -28.4093 178.515 main 856 808 P_____P__PP___ SH011950 -28.3952 178.531 -1 -28.3952 178.531 -28.3952 178.531 TC -28.4516 178.467 4 18 150
1949343S15156 1950 104 SP MM NOT_NAMED 1949-12-13 00:00:00 TS -29.2000 179.000 bom main 808 O_____O__OO___ jtwc_sh SH011950 -29.2000 179.000 -1 -29.2000 179.000 -29.2000 179.000 TC -29.2000 179.000 4 18 152

デジタル台風データ・検索

IBTrACS Databaseについて

本データベースは、米国NOAAが公開する1842年以降の世界の熱帯低気圧のベストトラックデータアーカイブInternational Best Track Archive for Climate Stewardship (IBTrACS)を、ウェブで閲覧しやすい形式に変換したものです。

最終更新日:2021-10-08